sensor_id;sensor_type;location;lat;lon;timestamp;pressure;altitude;pressure_sealevel;temperature;humidity
50650;BME280;36621;60.058;30.346;2023-08-31T00:06:39;100458.59;;;19.76;67.83
50650;BME280;36621;60.058;30.346;2023-08-31T00:14:11;100409.97;;;19.54;68.64
50650;BME280;36621;60.058;30.346;2023-08-31T00:21:44;100446.13;;;19.70;69.40
50650;BME280;36621;60.058;30.346;2023-08-31T00:29:16;100361.19;;;19.62;69.94
50650;BME280;36621;60.058;30.346;2023-08-31T00:36:49;100385.00;;;19.42;71.01
50650;BME280;36621;60.058;30.346;2023-08-31T00:44:22;100391.22;;;19.39;71.05
50650;BME280;36621;60.058;30.346;2023-08-31T00:51:55;100383.09;;;19.21;71.88
50650;BME280;36621;60.058;30.346;2023-08-31T00:59:29;100390.78;;;19.16;71.82
50650;BME280;36621;60.058;30.346;2023-08-31T01:07:07;100391.81;;;19.11;72.33
50650;BME280;36621;60.058;30.346;2023-08-31T01:14:47;100408.00;;;19.21;71.88
50650;BME280;36621;60.058;30.346;2023-08-31T01:22:29;100404.47;;;19.33;71.86
50650;BME280;36621;60.058;30.346;2023-08-31T01:30:04;100393.13;;;19.26;71.54
50650;BME280;36621;60.058;30.346;2023-08-31T01:37:45;100386.31;;;19.23;71.68
50650;BME280;36621;60.058;30.346;2023-08-31T01:45:21;100384.22;;;19.20;72.19
50650;BME280;36621;60.058;30.346;2023-08-31T01:52:54;100353.00;;;18.99;72.18
50650;BME280;36621;60.058;30.346;2023-08-31T02:00:27;100328.53;;;18.88;72.30
50650;BME280;36621;60.058;30.346;2023-08-31T02:08:01;100347.69;;;18.94;72.79
50650;BME280;36621;60.058;30.346;2023-08-31T02:15:37;100326.56;;;19.10;72.66
50650;BME280;36621;60.058;30.346;2023-08-31T02:23:09;100312.41;;;18.90;72.78
50650;BME280;36621;60.058;30.346;2023-08-31T02:30:45;100258.25;;;18.68;73.21
50650;BME280;36621;60.058;30.346;2023-08-31T02:38:17;100288.84;;;18.84;72.90
50650;BME280;36621;60.058;30.346;2023-08-31T02:45:59;100278.75;;;18.88;72.81
50650;BME280;36621;60.058;30.346;2023-08-31T02:53:32;100258.25;;;18.68;73.21
50650;BME280;36621;60.058;30.346;2023-08-31T03:01:09;100303.56;;;18.97;73.28
50650;BME280;36621;60.058;30.346;2023-08-31T03:08:44;100307.88;;;19.07;72.29
50650;BME280;36621;60.058;30.346;2023-08-31T03:16:17;100310.91;;;18.93;73.13
50650;BME280;36621;60.058;30.346;2023-08-31T03:23:49;100322.13;;;18.97;72.90
50650;BME280;36621;60.058;30.346;2023-08-31T03:31:22;100268.50;;;18.68;72.72
50650;BME280;36621;60.058;30.346;2023-08-31T03:38:54;100308.81;;;19.11;72.01
50650;BME280;36621;60.058;30.346;2023-08-31T03:46:27;100311.16;;;19.21;72.49
50650;BME280;36621;60.058;30.346;2023-08-31T03:54:01;100312.97;;;19.17;72.21
50650;BME280;36621;60.058;30.346;2023-08-31T04:01:34;100289.47;;;19.23;72.06
50650;BME280;36621;60.058;30.346;2023-08-31T04:09:06;100320.13;;;19.18;72.27
50650;BME280;36621;60.058;30.346;2023-08-31T04:16:39;100231.28;;;18.86;72.09
50650;BME280;36621;60.058;30.346;2023-08-31T04:24:12;100330.56;;;19.46;72.19
50650;BME280;36621;60.058;30.346;2023-08-31T04:31:44;100323.91;;;19.59;70.63
50650;BME280;36621;60.058;30.346;2023-08-31T04:39:16;100309.94;;;19.68;71.22
50650;BME280;36621;60.058;30.346;2023-08-31T04:46:49;100328.34;;;19.85;70.40
50650;BME280;36621;60.058;30.346;2023-08-31T04:54:22;100343.38;;;19.97;70.42
50650;BME280;36621;60.058;30.346;2023-08-31T05:01:57;100347.06;;;20.01;70.20
50650;BME280;36621;60.058;30.346;2023-08-31T05:09:29;100357.44;;;20.16;69.91
50650;BME280;36621;60.058;30.346;2023-08-31T05:17:04;100359.34;;;21.62;65.57
50650;BME280;36621;60.058;30.346;2023-08-31T05:24:37;100357.25;;;22.94;61.00
50650;BME280;36621;60.058;30.346;2023-08-31T05:32:09;100356.16;;;22.28;63.48
50650;BME280;36621;60.058;30.346;2023-08-31T05:39:41;100363.22;;;22.06;63.50
50650;BME280;36621;60.058;30.346;2023-08-31T05:47:14;100372.56;;;22.49;62.75
50650;BME280;36621;60.058;30.346;2023-08-31T05:54:46;100373.31;;;22.14;63.58
50650;BME280;36621;60.058;30.346;2023-08-31T06:02:19;100372.16;;;21.83;65.01
50650;BME280;36621;60.058;30.346;2023-08-31T06:09:51;100361.78;;;21.80;64.55
50650;BME280;36621;60.058;30.346;2023-08-31T06:17:24;100382.66;;;22.06;64.63
50650;BME280;36621;60.058;30.346;2023-08-31T06:24:56;100374.69;;;22.55;63.50
50650;BME280;36621;60.058;30.346;2023-08-31T06:32:29;100355.16;;;22.52;63.08
50650;BME280;36621;60.058;30.346;2023-08-31T06:40:02;100374.91;;;22.82;62.47
50650;BME280;36621;60.058;30.346;2023-08-31T06:47:36;100375.25;;;23.00;62.42
50650;BME280;36621;60.058;30.346;2023-08-31T13:35:39;100123.78;;;26.67;48.91
50650;BME280;36621;60.058;30.346;2023-08-31T13:43:11;100173.84;;;27.15;48.54
50650;BME280;36621;60.058;30.346;2023-08-31T13:50:46;100179.47;;;27.15;48.52
50650;BME280;36621;60.058;30.346;2023-08-31T13:58:18;100164.25;;;27.09;48.74
50650;BME280;36621;60.058;30.346;2023-08-31T14:05:54;100154.66;;;27.03;49.04
50650;BME280;36621;60.058;30.346;2023-08-31T14:13:26;100165.06;;;27.57;48.39
50650;BME280;36621;60.058;30.346;2023-08-31T14:21:05;100131.84;;;27.01;46.08
50650;BME280;36621;60.058;30.346;2023-08-31T14:28:38;100185.06;;;27.15;45.68
50650;BME280;36621;60.058;30.346;2023-08-31T14:36:12;100186.28;;;27.29;45.03
50650;BME280;36621;60.058;30.346;2023-08-31T14:43:46;100195.50;;;27.33;45.06
50650;BME280;36621;60.058;30.346;2023-08-31T14:51:25;100155.47;;;27.11;45.21
50650;BME280;36621;60.058;30.346;2023-08-31T14:58:57;100207.47;;;27.23;45.19
50650;BME280;36621;60.058;30.346;2023-08-31T15:06:30;100223.88;;;27.17;45.21
50650;BME280;36621;60.058;30.346;2023-08-31T15:23:09;100155.72;;;26.37;45.70
50650;BME280;36621;60.058;30.346;2023-08-31T15:30:42;100232.66;;;26.83;45.76
50650;BME280;36621;60.058;30.346;2023-08-31T15:38:37;100262.75;;;27.18;45.77
50650;BME280;36621;60.058;30.346;2023-08-31T15:46:19;100283.88;;;26.91;45.98
50650;BME280;36621;60.058;30.346;2023-08-31T15:53:53;100306.63;;;26.71;46.93
50650;BME280;36621;60.058;30.346;2023-08-31T16:01:26;100300.31;;;26.18;48.44
50650;BME280;36621;60.058;30.346;2023-08-31T16:08:59;100315.78;;;26.02;49.19
50650;BME280;36621;60.058;30.346;2023-08-31T16:16:31;100322.50;;;25.93;49.51
50650;BME280;36621;60.058;30.346;2023-08-31T16:24:05;100319.53;;;25.75;49.38
50650;BME280;36621;60.058;30.346;2023-08-31T16:31:37;100329.31;;;25.51;48.90
50650;BME280;36621;60.058;30.346;2023-08-31T16:39:10;100326.47;;;25.44;49.41
50650;BME280;36621;60.058;30.346;2023-08-31T16:46:42;100323.13;;;25.31;49.61
50650;BME280;36621;60.058;30.346;2023-08-31T16:54:15;100321.72;;;25.14;49.18
50650;BME280;36621;60.058;30.346;2023-08-31T17:01:47;100327.63;;;25.05;48.94
50650;BME280;36621;60.058;30.346;2023-08-31T17:09:20;100334.28;;;24.97;49.53
50650;BME280;36621;60.058;30.346;2023-08-31T17:16:53;100346.66;;;24.96;49.41
50650;BME280;36621;60.058;30.346;2023-08-31T17:24:25;100349.59;;;24.76;50.07
50650;BME280;36621;60.058;30.346;2023-08-31T17:31:58;100364.31;;;24.73;49.90
50650;BME280;36621;60.058;30.346;2023-08-31T17:39:30;100371.94;;;24.76;49.97
50650;BME280;36621;60.058;30.346;2023-08-31T17:47:03;100360.75;;;24.50;50.23
50650;BME280;36621;60.058;30.346;2023-08-31T17:55:24;100254.41;;;23.94;50.43
50650;BME280;36621;60.058;30.346;2023-08-31T18:04:12;100242.09;;;23.72;50.74
50650;BME280;36621;60.058;30.346;2023-08-31T18:12:05;100350.44;;;24.23;51.00
50650;BME280;36621;60.058;30.346;2023-08-31T18:19:38;100342.06;;;24.23;50.83
50650;BME280;36621;60.058;30.346;2023-08-31T18:27:11;100334.50;;;24.24;50.90
50650;BME280;36621;60.058;30.346;2023-08-31T18:34:44;100377.78;;;24.41;50.96
50650;BME280;36621;60.058;30.346;2023-08-31T18:42:17;100396.81;;;24.35;51.85
50650;BME280;36621;60.058;30.346;2023-08-31T18:49:49;100379.88;;;23.98;53.79
50650;BME280;36621;60.058;30.346;2023-08-31T18:57:25;100379.03;;;23.70;55.78
50650;BME280;36621;60.058;30.346;2023-08-31T19:04:57;100407.34;;;23.53;56.87
50650;BME280;36621;60.058;30.346;2023-08-31T19:20:04;100405.75;;;23.32;58.19
50650;BME280;36621;60.058;30.346;2023-08-31T19:27:40;100361.28;;;22.97;58.58
50650;BME280;36621;60.058;30.346;2023-08-31T19:35:12;100381.84;;;22.92;59.58
50650;BME280;36621;60.058;30.346;2023-08-31T19:42:46;100401.47;;;22.99;59.74
50650;BME280;36621;60.058;30.346;2023-08-31T19:50:20;100410.78;;;22.87;60.10
50650;BME280;36621;60.058;30.346;2023-08-31T19:57:54;100421.03;;;22.83;60.34
50650;BME280;36621;60.058;30.346;2023-08-31T20:05:26;100427.97;;;22.74;59.96
50650;BME280;36621;60.058;30.346;2023-08-31T20:13:00;100414.41;;;22.72;60.15
50650;BME280;36621;60.058;30.346;2023-08-31T20:20:32;100414.78;;;22.70;60.27
50650;BME280;36621;60.058;30.346;2023-08-31T20:28:05;100442.97;;;22.69;60.83
50650;BME280;36621;60.058;30.346;2023-08-31T20:35:37;100437.75;;;22.67;61.74
50650;BME280;36621;60.058;30.346;2023-08-31T20:43:10;100429.09;;;22.53;61.68
50650;BME280;36621;60.058;30.346;2023-08-31T20:50:42;100426.59;;;22.48;61.71
50650;BME280;36621;60.058;30.346;2023-08-31T20:58:15;100479.16;;;22.53;63.65
50650;BME280;36621;60.058;30.346;2023-08-31T21:05:49;100496.94;;;22.32;65.87
50650;BME280;36621;60.058;30.346;2023-08-31T21:13:22;100494.19;;;22.04;68.03
50650;BME280;36621;60.058;30.346;2023-08-31T21:20:54;100507.66;;;21.74;69.59
50650;BME280;36621;60.058;30.346;2023-08-31T21:28:30;100500.22;;;21.78;69.46
50650;BME280;36621;60.058;30.346;2023-08-31T21:36:03;100497.59;;;21.41;71.17
50650;BME280;36621;60.058;30.346;2023-08-31T21:43:36;100548.63;;;21.77;71.94
50650;BME280;36621;60.058;30.346;2023-08-31T21:51:09;100396.09;;;21.43;72.70
50650;BME280;36621;60.058;30.346;2023-08-31T21:58:41;100390.00;;;21.09;75.04
50650;BME280;36621;60.058;30.346;2023-08-31T22:06:14;100425.19;;;21.33;74.38
50650;BME280;36621;60.058;30.346;2023-08-31T22:13:47;100408.41;;;21.30;74.49
50650;BME280;36621;60.058;30.346;2023-08-31T22:21:19;100370.44;;;21.06;75.22
50650;BME280;36621;60.058;30.346;2023-08-31T22:28:53;100361.03;;;20.94;75.14
50650;BME280;36621;60.058;30.346;2023-08-31T22:36:25;100375.06;;;21.14;74.68
50650;BME280;36621;60.058;30.346;2023-08-31T22:43:58;100329.41;;;20.83;74.53
50650;BME280;36621;60.058;30.346;2023-08-31T22:51:31;100348.56;;;20.88;74.63
50650;BME280;36621;60.058;30.346;2023-08-31T22:59:04;100379.44;;;20.87;75.01
50650;BME280;36621;60.058;30.346;2023-08-31T23:06:36;100379.69;;;20.69;75.82
50650;BME280;36621;60.058;30.346;2023-08-31T23:14:09;100386.41;;;20.56;76.68
50650;BME280;36621;60.058;30.346;2023-08-31T23:21:41;100391.50;;;20.41;76.73
50650;BME280;36621;60.058;30.346;2023-08-31T23:29:14;100395.91;;;20.42;76.71
50650;BME280;36621;60.058;30.346;2023-08-31T23:36:47;100390.94;;;20.36;75.54
50650;BME280;36621;60.058;30.346;2023-08-31T23:44:20;100388.72;;;20.29;76.14
50650;BME280;36621;60.058;30.346;2023-08-31T23:51:52;100393.22;;;20.34;75.74
50650;BME280;36621;60.058;30.346;2023-08-31T23:59:25;100399.22;;;20.48;76.27
